Time;durP1;ratioP1;P1;durP2;ratioP2;P2;SDS_P1;SDS_P2;PMS_P1;PMS_P2;Temp;Humidity;BMP_temperature;BMP_pressure;BME280_temperature;BME280_humidity;BME280_pressure;Samples;Min_cycle;Max_cycle;Signal;HPM_P1;HPM_P2
2022/11/26 00:04:52;;;;;;;;;;;;;;;17.70;56.89;96739.50;6152472;23;20343;-32
2022/11/26 00:19:48;;;;;;;;;;;;;;;17.64;56.99;96742.16;6155956;23;19956;-33
2022/11/26 00:34:25;;;;;;;;;;;;;;;17.63;56.74;96734.34;6156217;23;19918;-32
2022/11/26 00:49:01;;;;;;;;;;;;;;;17.65;56.33;96731.94;6156284;23;19915;-33
2022/11/26 01:03:41;;;;;;;;;;;;;;;17.63;56.53;96726.13;6156328;23;19916;-33
2022/11/26 01:18:18;;;;;;;;;;;;;;;17.57;55.89;96713.03;6155607;23;19967;-32
2022/11/26 01:32:55;;;;;;;;;;;;;;;17.48;55.83;96701.38;6155948;23;20120;-32
2022/11/26 01:47:51;;;;;;;;;;;;;;;17.44;55.59;96709.75;6157676;23;19991;-32
2022/11/26 02:02:52;;;;;;;;;;;;;;;17.45;55.29;96711.28;6157425;23;19915;-32
2022/11/26 02:17:52;;;;;;;;;;;;;;;17.38;55.02;96686.19;6154389;23;19919;-32
2022/11/26 02:32:53;;;;;;;;;;;;;;;17.48;54.17;96687.66;6127663;23;19936;-33
2022/11/26 02:47:54;;;;;;;;;;;;;;;17.38;53.83;96665.03;6127442;23;19968;-32
2022/11/26 03:02:54;;;;;;;;;;;;;;;17.43;53.09;96647.19;6127437;23;19959;-32
2022/11/26 03:17:55;;;;;;;;;;;;;;;17.29;52.80;96617.72;6127291;23;19916;-32
2022/11/26 03:32:56;;;;;;;;;;;;;;;17.20;52.43;96599.31;6156756;23;20028;-32
2022/11/26 03:48:00;;;;;;;;;;;;;;;17.25;51.94;96585.00;6156530;23;19915;-33
2022/11/26 04:02:58;;;;;;;;;;;;;;;17.18;52.28;96583.34;6156111;23;20040;-32
2022/11/26 04:17:58;;;;;;;;;;;;;;;17.12;52.62;96598.16;6156308;23;19935;-32
2022/11/26 04:33:00;;;;;;;;;;;;;;;17.11;52.56;96580.19;6156386;23;19995;-33
2022/11/26 04:48:00;;;;;;;;;;;;;;;17.15;52.05;96580.78;6156181;23;19940;-33
2022/11/26 05:03:01;;;;;;;;;;;;;;;17.06;52.21;96584.31;6156065;23;19916;-32
2022/11/26 05:18:09;;;;;;;;;;;;;;;17.11;51.95;96600.13;6158226;23;19919;-32
2022/11/26 05:33:11;;;;;;;;;;;;;;;17.03;52.65;96626.38;6126401;23;19920;-33
2022/11/26 05:48:06;;;;;;;;;;;;;;;17.08;51.90;96631.19;6128109;23;19915;-34
2022/11/26 05:50:32;;;;;;;;;;;;;;;17.04;52.41;96625.16;6128217;23;20244;-32
2022/11/26 06:05:08;;;;;;;;;;;;;;;17.19;51.74;96630.69;6127866;23;19991;-33
2022/11/26 06:07:33;;;;;;;;;;;;;;;17.06;52.33;96633.66;6128126;23;19944;-33
2022/11/26 06:34:22;;;;;;;;;;;;;;;17.12;51.89;96652.97;6157290;23;19963;-32
2022/11/26 06:49:03;;;;;;;;;;;;;;;17.07;52.18;96659.06;6156839;23;19959;-34
2022/11/26 07:03:40;;;;;;;;;;;;;;;17.05;51.37;96656.06;6156795;23;19988;-35
2022/11/26 07:18:16;;;;;;;;;;;;;;;17.08;51.76;96675.06;6156502;23;19923;-33
2022/11/26 07:33:11;;;;;;;;;;;;;;;17.11;51.24;96698.78;6156705;23;19962;-33
2022/11/26 07:48:12;;;;;;;;;;;;;;;17.05;51.13;96706.13;6133543;23;20255;-32
2022/11/26 08:03:11;;;;;;;;;;;;;;;17.09;50.79;96725.91;6156405;23;19923;-32
2022/11/26 08:05:43;;;;;;;;;;;;;;;17.12;50.95;96719.50;6156250;23;19912;-32
2022/11/26 08:08:10;;;;;;;;;;;;;;;17.09;50.83;96716.91;6156479;23;19912;-33
2022/11/26 08:35:59;;;;;;;;;;;;;;;16.95;50.94;96742.97;6153631;23;19946;-32
2022/11/26 08:53:39;;;;;;;;;;;;;;;17.03;50.19;96760.63;6155777;23;19920;-33
2022/11/26 09:08:16;;;;;;;;;;;;;;;17.04;49.86;96781.34;6155630;23;20117;-34
2022/11/26 09:23:07;;;;;;;;;;;;;;;17.05;50.03;96804.78;6153404;23;19947;-32
2022/11/26 09:31:56;;;;;;;;;;;;;;;17.08;49.33;96822.25;6153913;23;19984;-33
2022/11/26 09:47:07;;;;;;;;;;;;;;;16.75;50.53;96828.41;6157302;23;20379;-32
2022/11/26 10:02:18;;;;;;;;;;;;;;;16.64;49.93;96828.09;6157593;23;19960;-35
2022/11/26 10:04:44;;;;;;;;;;;;;;;16.60;48.03;96832.16;6156449;23;19908;-34
2022/11/26 10:19:53;;;;;;;;;;;;;;;16.94;47.87;96828.41;6157353;23;19919;-34
2022/11/26 10:28:51;;;;;;;;;;;;;;;17.02;48.65;96835.84;6035692;23;19970;-34
2022/11/26 10:31:16;;;;;;;;;;;;;;;16.84;47.50;96839.34;6038729;23;19918;-34
2022/11/26 10:43:18;;;;;;;;;;;;;;;16.66;45.88;96846.81;6038422;23;19981;-35
2022/11/26 10:58:27;;;;;;;;;;;;;;;17.14;48.63;96864.28;6095270;23;19915;-35
2022/11/26 11:13:37;;;;;;;;;;;;;;;17.01;48.92;96888.34;6156929;23;19916;-35
2022/11/26 11:28:48;;;;;;;;;;;;;;;17.10;48.58;96902.03;6156714;23;19955;-35
2022/11/26 11:44:14;;;;;;;;;;;;;;;16.85;47.88;96886.66;6127183;23;20297;-36
2022/11/26 12:00:08;;;;;;;;;;;;;;;16.96;47.74;96897.94;6127047;23;20256;-34
2022/11/26 12:14:48;;;;;;;;;;;;;;;16.61;46.54;96910.34;5981515;24;20277;-34
2022/11/26 12:29:35;;;;;;;;;;;;;;;16.49;46.63;96920.22;5987217;23;19953;-33
2022/11/26 12:32:30;;;;;;;;;;;;;;;16.49;45.52;96914.75;5980820;24;19919;-33
2022/11/26 12:44:38;;;;;;;;;;;;;;;16.88;44.45;96916.66;6126693;23;19936;-34
2022/11/26 12:59:49;;;;;;;;;;;;;;;17.05;46.53;96952.00;6126785;23;19996;-33
2022/11/26 13:15:00;;;;;;;;;;;;;;;16.63;47.63;96947.06;6126763;23;19960;-32
2022/11/26 13:17:31;;;;;;;;;;;;;;;17.02;47.07;96950.16;6126443;23;19912;-32
2022/11/26 13:32:08;;;;;;;;;;;;;;;16.84;47.22;96953.63;6154466;23;19968;-33
2022/11/26 13:47:15;;;;;;;;;;;;;;;16.99;46.61;96964.75;6157987;23;19987;-33
2022/11/26 14:02:23;;;;;;;;;;;;;;;16.59;47.36;96964.81;6157346;23;20332;-33
2022/11/26 14:14:16;;;;;;;;;;;;;;;16.86;45.76;96987.56;6157530;23;19995;-34
2022/11/26 14:28:59;;;;;;;;;;;;;;;16.96;46.14;97014.97;6157676;23;19924;-33
2022/11/26 14:31:27;;;;;;;;;;;;;;;17.00;45.93;97018.34;6157539;23;19983;-34
2022/11/26 14:33:55;;;;;;;;;;;;;;;16.99;46.01;97017.59;6157473;23;20343;-33
2022/11/26 14:43:03;;;;;;;;;;;;;;;16.77;45.61;97022.41;6157044;23;19962;-34
2022/11/26 14:58:14;;;;;;;;;;;;;;;16.57;46.09;97052.88;6157144;23;19916;-33
2022/11/26 15:09:58;;;;;;;;;;;;;;;17.02;45.00;97044.09;6156944;23;19956;-34
2022/11/26 15:24:36;;;;;;;;;;;;;;;16.87;45.46;97065.03;6153745;23;19927;-34
2022/11/26 15:39:32;;;;;;;;;;;;;;;17.01;44.83;97077.41;6151250;23;20014;-33
2022/11/26 15:54:19;;;;;;;;;;;;;;;16.99;44.99;97082.59;6153872;23;20255;-33
2022/11/26 16:05:54;;;;;;;;;;;;;;;16.99;44.83;97099.03;6153485;23;19978;-33
2022/11/26 16:08:29;;;;;;;;;;;;;;;16.93;45.15;97096.13;6153835;23;20307;-34
2022/11/26 16:20:33;;;;;;;;;;;;;;;16.92;45.21;97116.53;6153858;23;19927;-36
2022/11/26 16:35:10;;;;;;;;;;;;;;;17.14;44.58;97130.13;6153617;23;19953;-33
2022/11/26 16:50:24;;;;;;;;;;;;;;;16.97;44.47;97161.72;6150320;23;19971;-36
2022/11/26 17:01:58;;;;;;;;;;;;;;;17.06;44.41;97175.47;6153244;23;19996;-33
2022/11/26 17:16:35;;;;;;;;;;;;;;;17.21;43.88;97204.59;6155444;23;19920;-33
2022/11/26 17:19:01;;;;;;;;;;;;;;;17.07;43.98;97205.16;6155037;23;19916;-34
2022/11/26 17:33:37;;;;;;;;;;;;;;;17.04;44.14;97214.28;6154690;23;19915;-33
2022/11/26 17:48:14;;;;;;;;;;;;;;;17.14;43.52;97226.06;6154765;23;20236;-34
2022/11/26 17:50:40;;;;;;;;;;;;;;;17.13;43.52;97219.03;6154480;23;19917;-34
2022/11/26 18:02:13;;;;;;;;;;;;;;;17.13;43.08;97235.50;6155129;23;19920;-33
2022/11/26 18:16:57;;;;;;;;;;;;;;;17.08;43.28;97211.41;6154963;23;19951;-33
2022/11/26 18:32:08;;;;;;;;;;;;;;;17.19;42.98;97247.38;6036566;23;19917;-34
2022/11/26 18:47:17;;;;;;;;;;;;;;;17.14;43.07;97254.22;6036255;23;20265;-34
2022/11/26 19:02:34;;;;;;;;;;;;;;;16.97;43.15;97250.19;6150385;23;19938;-33
2022/11/26 19:17:38;;;;;;;;;;;;;;;17.04;42.79;97260.88;6154521;23;19976;-33
2022/11/26 19:32:49;;;;;;;;;;;;;;;17.16;42.72;97253.78;6154752;23;19991;-33
2022/11/26 19:35:14;;;;;;;;;;;;;;;17.08;42.83;97249.78;6153823;23;19959;-33
2022/11/26 19:49:51;;;;;;;;;;;;;;;17.06;42.74;97260.44;6154040;23;20002;-33
2022/11/26 20:04:28;;;;;;;;;;;;;;;17.06;42.68;97271.41;6152420;23;19940;-35
2022/11/26 20:19:05;;;;;;;;;;;;;;;17.10;42.33;97266.53;6153771;23;20056;-33
2022/11/26 20:33:42;;;;;;;;;;;;;;;17.13;42.09;97279.34;6154009;23;20343;-34
2022/11/26 20:48:43;;;;;;;;;;;;;;;17.04;42.15;97315.69;6155882;23;20070;-33
2022/11/26 21:19:30;;;;;;;;;;;;;;;16.92;41.62;97326.72;6126011;23;19920;-33
2022/11/26 21:34:16;;;;;;;;;;;;;;;17.05;41.52;97350.13;6125791;23;19919;-34
2022/11/26 21:49:26;;;;;;;;;;;;;;;17.00;41.33;97369.84;6126156;23;20335;-34
2022/11/26 22:20:21;;;;;;;;;;;;;;;16.97;41.27;97367.22;6125328;23;20256;-33
2022/11/26 22:22:46;;;;;;;;;;;;;;;17.03;41.10;97366.22;6099173;23;19921;-34
2022/11/26 22:25:13;;;;;;;;;;;;;;;16.92;41.27;97365.09;6125858;23;19913;-34
2022/11/26 22:36:47;;;;;;;;;;;;;;;17.01;41.23;97367.88;6125116;23;19957;-35
2022/11/26 22:48:21;;;;;;;;;;;;;;;17.02;41.11;97380.38;6125056;23;19916;-34
2022/11/26 23:03:13;;;;;;;;;;;;;;;17.13;40.97;97383.50;6124799;23;20307;-33
2022/11/26 23:18:24;;;;;;;;;;;;;;;17.02;41.18;97396.81;6154000;23;19915;-34
2022/11/26 23:20:49;;;;;;;;;;;;;;;16.97;41.27;97389.16;6153869;23;20255;-34
2022/11/26 23:35:26;;;;;;;;;;;;;;;16.91;41.64;97388.22;6153905;23;19988;-33
2022/11/26 23:44:09;;;;;;;;;;;;;;;16.98;40.97;97394.19;6153642;23;19920;-33
2022/11/26 23:46:35;;;;;;;;;;;;;;;16.88;41.38;97401.59;6153390;23;19919;-34
